Terminal Aerodrome Forecast
Issued by NWS

Home | Current Version | Previous Version | Text Only | Print | Product List | Glossary On
Versions: 1 2 3 4 5 6 7 8 9 10 11 12 13 14 15 16 17 18 19 20 21
000
FTUS46 KLOX 231146
TAFSBP
TAF
KSBP 231146Z 2312/2412 VRB03KT P6SM OVC015
     FM231800 31007KT P6SM SCT025
     FM232100 31015G25KT P6SM SCT030
     FM240300 31008KT P6SM BKN025
     FM240700 31005KT P6SM OVC015=

USA.gov is the U.S. government's official web portal to all federal, state and local government web resources and services.